Klaus Pelzmann im Turnier von 01.01.1970 bis 01.01.1970

Klaus Pelzmanns Ergebnis

Rang 190.
Turnierpunkte 994
Gespielt : Gewonnen 100 : 63
Schneider 11
Bilanz 583:450

Klaus Pelzmanns Bummerln

Zeit Gegner Ergebnis Ende
08:20:03 am 05.01.2019 Klaudia 0:8 normal
08:14:33 am 05.01.2019 gfm 5:8 normal
08:08:18 am 05.01.2019 Mandi22 6:8 normal
08:00:13 am 05.01.2019 Andrea 7:2 normal
07:53:49 am 05.01.2019 Ich 6:7 normal
07:48:49 am 05.01.2019 Mani1972 1:8 normal
07:42:27 am 05.01.2019 Fred 7:2 normal
07:36:11 am 05.01.2019 WÜDERER 7:4 normal
07:25:48 am 05.01.2019 Bergomi 8:5 normal
13:42:30 am 04.01.2019 nape 7:1 normal
13:34:07 am 04.01.2019 PuniqaR 5:7 normal
13:31:13 am 04.01.2019 HEBS 0:7 normal
13:24:48 am 04.01.2019 Heidi Langmann 8:1 normal
13:15:36 am 04.01.2019 ):SM-T530 5:8 normal
13:09:13 am 04.01.2019 Darku Darku Horvat 7:3 normal
13:04:10 am 04.01.2019 iPhone Fritz 8:2 normal
07:18:35 am 04.01.2019 AK1 2:7 normal
17:32:27 am 03.01.2019 Chris 7:0 normal
17:20:02 am 03.01.2019 Toni 7:4 normal
17:16:08 am 03.01.2019 oma 0:7 normal
17:08:59 am 03.01.2019 Kapsinho 4:7 normal
13:44:53 am 03.01.2019 Jessica 3:7 normal
13:40:56 am 03.01.2019 Speedy 3:7 normal
13:35:02 am 03.01.2019 martines 7:1 normal
13:29:32 am 03.01.2019 Mini-Mellu 7:0 normal
13:27:36 am 03.01.2019 Strudi 3:7 normal
13:22:06 am 03.01.2019 Harald M 8:1 normal
13:08:59 am 03.01.2019 *Hulk 7:0 autocontnormal
13:01:17 am 03.01.2019 Molten Spalding 7:4 normal
12:52:28 am 03.01.2019 Thorsten 4:7 normal
12:46:29 am 03.01.2019 bočo 7:3 normal
10:20:26 am 03.01.2019 Geggi Strobl 4:7 normal
10:16:05 am 03.01.2019 Hancock72 8:6 normal
09:39:45 am 03.01.2019 Hubert17 3:7 normal
09:34:59 am 03.01.2019 ptk89 7:6 normal
08:57:15 am 03.01.2019 Liesi 8:2 normal
08:54:22 am 03.01.2019 duzers692 7:2 normal
07:31:14 am 03.01.2019 mary0F 8:5 normal
07:26:21 am 03.01.2019 SM-G903F 2:7 normal
07:17:37 am 03.01.2019 Huberts iPhone offic... 4:7 normal
07:13:01 am 03.01.2019 anita 3:8 normal
07:08:20 am 03.01.2019 Handlbauer 1:8 normal
07:05:07 am 03.01.2019 Jürgen Pontasch 7:2 normal
07:00:26 am 03.01.2019 66er 7:3 normal
06:51:52 am 03.01.2019 Franz 7:4 normal
06:46:27 am 03.01.2019 Anton Opa 7:0 normal
06:38:14 am 03.01.2019 suuupaa 7:2 normal
06:32:08 am 03.01.2019 prinz 6 6:9 normal
18:18:54 am 02.01.2019 Droid 0:8 normal
18:15:20 am 02.01.2019 joh.m 3:9 normal
18:10:23 am 02.01.2019 Sonja742Sonja 7:1 normal
18:06:03 am 02.01.2019 BERNI 7:0 normal
16:47:08 am 02.01.2019 Andreas Prislan 5:8 normal
15:33:29 am 02.01.2019 *andrea 8:4 autocontnormal
15:29:41 am 02.01.2019 *marie 8:0 autocontnormal
15:24:47 am 02.01.2019 Aers 8:5 normal
15:20:08 am 02.01.2019 sebi9762 7:4 normal
14:46:59 am 02.01.2019 SM-G388F 9:4 normal
14:42:14 am 02.01.2019 stoal 8:2 normal
14:39:21 am 02.01.2019 Hr. Werner 8:2 normal
14:35:00 am 02.01.2019 *scr4 2:8 autocontnormal
13:43:40 am 02.01.2019 Mimi Kraus 4:8 normal
13:38:20 am 02.01.2019 Miki Rapaić 8:3 normal
13:33:37 am 02.01.2019 Helga 8:1 normal
13:28:19 am 02.01.2019 hofi 7:6 normal
13:23:53 am 02.01.2019 SM-G935F 8:1 normal
13:04:08 am 02.01.2019 Herbert 2:9 normal
12:56:14 am 02.01.2019 Vorwerk Gottfried 7:6 normal
12:47:23 am 02.01.2019 Max 8:3 normal
12:44:29 am 02.01.2019 Daniel 7:0 normal
12:40:33 am 02.01.2019 Richi 7:2 normal
12:32:47 am 02.01.2019 Mike69 8:5 normal
12:27:44 am 02.01.2019 Bernd Unterweger 0:9 normal
12:21:19 am 02.01.2019 Ernst Kremshuber 8:6 normal
12:15:35 am 02.01.2019 Hapi 8:4 normal
12:10:45 am 02.01.2019 Asterix789 8:2 normal
12:07:08 am 02.01.2019 Stanislav Meršnik 3:8 normal
12:02:20 am 02.01.2019 Franz Hofer 2:7 normal
11:57:13 am 02.01.2019 woody1234 8:3 normal
11:54:23 am 02.01.2019 Robert 4:7 normal
11:28:32 am 02.01.2019 Puma Punku 4:7 normal
11:23:58 am 02.01.2019 cora 7:0 normal
11:04:27 am 02.01.2019 da Bestaste 0:8 normal
08:45:15 am 02.01.2019 Xavinatl 6:7 normal
08:38:36 am 02.01.2019 Rosa Brunner 7:6 normal
08:11:58 am 02.01.2019 Sabine 8:3 normal
08:05:11 am 02.01.2019 Rickv 7:5 normal
08:01:22 am 02.01.2019 Pauli 8:0 normal
07:40:24 am 02.01.2019 chips 7:3 normal
07:06:25 am 02.01.2019 Daf 11 7:4 normal
18:01:34 am 01.01.2019 SM-G955F 7:2 normal
17:56:10 am 01.01.2019 Claudia 7:1 normal
16:58:09 am 01.01.2019 Sonja Götzinger 8:4 normal
16:27:28 am 01.01.2019 Károly Kovács 7:4 normal
16:24:28 am 01.01.2019 Sheamus 7:0 normal
16:15:37 am 01.01.2019 ts115 8:5 normal
16:01:19 am 01.01.2019 Stefan Stichauner 5:8 normal
15:53:18 am 01.01.2019 Mario Mayer 4:8 normal
15:51:01 am 01.01.2019 Erika 7:0 normal
13:40:56 am 01.01.2019 M&M 8:2 normal